Time;durP1;ratioP1;P1;durP2;ratioP2;P2;SDS_P1;SDS_P2;PMS_P1;PMS_P2;Temp;Humidity;BMP_temperature;BMP_pressure;BME280_temperature;BME280_humidity;BME280_pressure;Samples;Min_cycle;Max_cycle;Signal;HPM_P1;HPM_P2
2022/03/25 00:01:43;;;;;;;234.57;65.45;;;5.10;99.90;;;;;;5015560;28;20042;-70
2022/03/25 00:04:09;;;;;;;293.52;87.32;;;5.00;99.90;;;;;;5014285;28;20060;-70
2022/03/25 00:06:35;;;;;;;233.52;65.63;;;5.10;99.90;;;;;;5015419;28;20409;-68
2022/03/25 00:09:01;;;;;;;257.10;67.78;;;4.90;99.90;;;;;;5013966;28;20137;-69
2022/03/25 00:11:27;;;;;;;251.73;67.05;;;5.00;99.90;;;;;;5015240;28;20067;-70
2022/03/25 00:13:53;;;;;;;242.95;67.13;;;4.90;99.90;;;;;;5015446;28;20153;-70
2022/03/25 00:16:18;;;;;;;259.85;70.10;;;4.90;99.90;;;;;;5015560;28;20375;-70
2022/03/25 00:18:44;;;;;;;272.38;70.70;;;4.90;99.90;;;;;;5015524;28;20041;-70
2022/03/25 00:21:10;;;;;;;256.67;69.07;;;4.80;99.90;;;;;;5014397;28;20355;-68
2022/03/25 00:23:36;;;;;;;256.20;70.60;;;4.80;99.90;;;;;;4997711;28;20104;-69
2022/03/25 00:26:02;;;;;;;263.88;71.65;;;4.80;99.90;;;;;;4997472;28;20050;-69
2022/03/25 00:28:28;;;;;;;259.50;70.20;;;4.80;99.90;;;;;;5015156;28;20482;-69
2022/03/25 00:30:54;;;;;;;281.92;71.88;;;4.70;99.90;;;;;;5015653;28;20111;-70
2022/03/25 00:33:20;;;;;;;265.58;70.78;;;4.70;99.90;;;;;;5014063;28;20045;-70
2022/03/25 00:35:46;;;;;;;268.08;70.32;;;4.60;99.90;;;;;;5014010;28;20057;-70
2022/03/25 00:38:12;;;;;;;258.15;67.78;;;4.70;99.90;;;;;;5013310;28;20060;-70
2022/03/25 00:40:38;;;;;;;256.35;69.53;;;4.60;99.90;;;;;;4996296;28;20398;-70
2022/03/25 00:43:06;;;;;;;279.17;72.72;;;4.60;99.90;;;;;;5014436;28;20501;-69
2022/03/25 00:45:32;;;;;;;260.75;70.65;;;4.60;99.90;;;;;;5014863;28;20148;-71
2022/03/25 00:48:01;;;;;;;264.52;69.65;;;4.60;99.90;;;;;;5014656;28;20057;-69
2022/03/25 00:50:27;;;;;;;268.05;68.80;;;4.60;99.90;;;;;;5014571;28;20510;-70
2022/03/25 00:52:53;;;;;;;286.30;78.32;;;4.60;99.90;;;;;;4996533;28;20129;-70
2022/03/25 00:55:19;;;;;;;267.48;72.30;;;4.60;99.90;;;;;;5013453;28;20081;-69
2022/03/25 00:57:45;;;;;;;282.47;74.60;;;4.50;99.90;;;;;;5013427;28;20045;-69
2022/03/25 01:00:11;;;;;;;272.23;66.93;;;4.50;99.90;;;;;;5018725;28;20049;-69
2022/03/25 01:02:38;;;;;;;302.58;77.22;;;4.50;99.90;;;;;;5018299;28;20124;-69
2022/03/25 01:05:05;;;;;;;283.38;72.05;;;4.60;99.90;;;;;;5015258;28;20332;-69
2022/03/25 01:07:31;;;;;;;254.75;70.05;;;4.50;99.90;;;;;;5013275;28;20450;-69
2022/03/25 01:09:56;;;;;;;273.35;70.68;;;4.50;99.90;;;;;;5014417;28;20045;-69
2022/03/25 01:12:23;;;;;;;275.60;72.88;;;4.50;99.90;;;;;;5012774;28;20053;-69
2022/03/25 01:14:49;;;;;;;276.63;70.03;;;4.40;99.90;;;;;;5013311;28;20062;-68
2022/03/25 01:17:16;;;;;;;277.25;72.25;;;4.40;99.90;;;;;;5013982;28;20050;-68
2022/03/25 01:19:42;;;;;;;;;;;4.40;99.90;;;;;;5014429;28;20572;-70
2022/03/25 01:22:08;;;;;;;292.80;73.67;;;4.40;99.90;;;;;;5014157;28;19921;-71
2022/03/25 01:24:34;;;;;;;274.50;71.75;;;4.40;99.90;;;;;;4996728;28;20160;-70
2022/03/25 01:27:00;;;;;;;272.02;70.63;;;4.30;99.90;;;;;;5014158;28;20046;-68
2022/03/25 01:29:27;;;;;;;275.70;70.82;;;4.30;99.90;;;;;;5012001;28;20081;-69
2022/03/25 01:31:56;;;;;;;282.25;70.70;;;4.30;99.90;;;;;;5012799;28;20077;-69
2022/03/25 01:34:22;;;;;;;278.65;71.13;;;4.30;99.90;;;;;;5012492;28;20046;-69
2022/03/25 01:36:48;;;;;;;294.98;74.35;;;4.30;99.90;;;;;;5012467;28;20111;-69
2022/03/25 01:39:14;;;;;;;340.88;80.70;;;4.30;99.90;;;;;;5012399;28;20041;-70
2022/03/25 01:41:40;;;;;;;325.35;77.82;;;4.40;99.90;;;;;;4996292;28;20091;-71
2022/03/25 01:44:09;;;;;;;295.52;73.15;;;4.30;99.90;;;;;;4996064;28;20077;-69
2022/03/25 01:46:36;;;;;;;285.88;72.10;;;4.20;99.90;;;;;;5012196;28;20103;-69
2022/03/25 01:49:02;;;;;;;293.27;71.93;;;4.20;99.90;;;;;;5012163;28;20439;-69
2022/03/25 01:51:36;;;;;;;327.23;81.72;;;4.20;99.90;;;;;;4995356;28;20038;-70
2022/03/25 01:54:19;;;;;;;317.25;77.38;;;4.30;99.90;;;;;;5013498;28;20065;-69
2022/03/25 01:56:48;;;;;;;308.83;74.65;;;4.30;99.90;;;;;;5012516;28;20060;-69
2022/03/25 01:59:16;;;;;;;288.73;72.43;;;4.30;99.90;;;;;;5013738;28;20054;-69
2022/03/25 02:01:42;;;;;;;;;;;4.20;99.90;;;;;;5013696;28;20057;-71
2022/03/25 02:04:10;;;;;;;277.73;67.93;;;4.20;99.90;;;;;;5013243;28;19921;-69
2022/03/25 02:06:35;;;;;;;280.38;70.63;;;4.10;99.90;;;;;;5013478;28;20054;-69
2022/03/25 02:09:01;;;;;;;334.15;83.00;;;4.10;99.90;;;;;;5012471;28;20056;-69
2022/03/25 02:11:28;;;;;;;277.02;69.82;;;4.20;99.90;;;;;;5012248;28;20049;-69
2022/03/25 02:13:53;;;;;;;316.52;76.57;;;4.10;99.90;;;;;;5012392;28;20045;-69
2022/03/25 02:16:19;;;;;;;306.05;73.85;;;4.20;99.90;;;;;;5012013;28;20405;-70
2022/03/25 02:18:45;;;;;;;300.10;73.90;;;4.10;99.90;;;;;;5011953;28;20104;-70
2022/03/25 02:21:12;;;;;;;295.80;72.93;;;4.10;99.90;;;;;;5013328;28;20050;-70
2022/03/25 02:23:38;;;;;;;295.10;72.90;;;4.00;99.90;;;;;;5013291;28;20061;-71
2022/03/25 02:26:05;;;;;;;308.75;75.18;;;4.00;99.90;;;;;;5013573;28;20050;-70
2022/03/25 02:28:31;;;;;;;312.25;73.82;;;4.00;99.90;;;;;;5013159;28;20061;-70
2022/03/25 02:30:57;;;;;;;298.17;71.55;;;4.00;99.90;;;;;;5012118;28;20049;-71
2022/03/25 02:33:22;;;;;;;294.77;70.70;;;4.00;99.90;;;;;;5012381;28;20081;-68
2022/03/25 02:35:50;;;;;;;301.90;72.55;;;3.90;99.90;;;;;;5015394;28;20132;-70
2022/03/25 02:38:23;;;;;;;335.20;78.35;;;3.90;99.90;;;;;;5011753;28;20049;-69
2022/03/25 02:40:50;;;;;;;303.08;75.57;;;3.90;99.90;;;;;;5011425;28;20042;-70
2022/03/25 02:43:17;;;;;;;297.55;74.78;;;3.80;99.90;;;;;;5011854;28;20405;-68
2022/03/25 02:45:42;;;;;;;312.73;73.25;;;3.90;99.90;;;;;;4995400;28;20439;-70
2022/03/25 02:48:09;;;;;;;292.95;71.22;;;3.70;99.90;;;;;;5012121;28;20085;-71
2022/03/25 02:50:35;;;;;;;315.37;73.77;;;3.70;99.90;;;;;;5012074;28;20351;-70
2022/03/25 02:53:02;;;;;;;316.20;72.50;;;3.70;99.90;;;;;;5011096;28;20076;-70
2022/03/25 02:55:28;;;;;;;317.45;73.13;;;3.70;99.90;;;;;;4995312;28;20057;-70
2022/03/25 02:57:55;;;;;;;314.85;72.75;;;3.70;99.90;;;;;;5011210;28;20047;-70
2022/03/25 03:00:21;;;;;;;306.48;73.80;;;3.60;99.90;;;;;;5012173;28;20056;-70
2022/03/25 03:02:48;;;;;;;335.47;77.13;;;3.60;99.90;;;;;;5014319;28;20046;-71
2022/03/25 03:05:17;;;;;;;371.80;82.00;;;3.80;99.90;;;;;;5015226;28;20057;-69
2022/03/25 03:07:46;;;;;;;339.48;77.25;;;3.70;99.90;;;;;;5015156;28;20136;-70
2022/03/25 03:10:13;;;;;;;303.02;73.30;;;3.60;99.90;;;;;;5016786;28;20038;-69
2022/03/25 03:12:39;;;;;;;327.00;75.82;;;3.50;99.90;;;;;;4999028;28;20108;-68
2022/03/25 03:15:06;;;;;;;351.35;78.28;;;3.60;99.90;;;;;;5015110;28;20054;-69
2022/03/25 03:17:32;;;;;;;358.00;84.15;;;3.60;99.90;;;;;;5016441;28;20053;-69
2022/03/25 03:19:58;;;;;;;340.15;76.18;;;3.60;99.90;;;;;;5016262;28;20045;-69
2022/03/25 03:22:24;;;;;;;326.10;75.50;;;3.50;99.90;;;;;;5015228;28;20050;-69
2022/03/25 03:24:51;;;;;;;321.98;72.38;;;3.40;99.90;;;;;;5016331;28;20402;-71
2022/03/25 03:27:17;;;;;;;316.17;74.47;;;3.40;99.90;;;;;;5016284;28;20053;-70
2022/03/25 03:29:43;;;;;;;312.85;73.72;;;3.40;99.90;;;;;;5016322;28;20054;-69
2022/03/25 03:32:09;;;;;;;303.08;71.07;;;3.40;99.90;;;;;;5015479;28;20073;-70
2022/03/25 03:34:35;;;;;;;312.05;72.57;;;3.40;99.90;;;;;;5016884;28;20072;-67
2022/03/25 03:37:01;;;;;;;331.83;75.77;;;3.30;99.90;;;;;;5016362;28;20045;-69
2022/03/25 03:39:27;;;;;;;342.77;79.05;;;3.30;99.90;;;;;;5014440;28;20316;-68
2022/03/25 03:41:53;;;;;;;307.15;74.97;;;3.30;99.90;;;;;;5015021;28;20081;-69
2022/03/25 03:44:19;;;;;;;324.95;73.90;;;3.20;99.90;;;;;;5016121;28;20045;-69
2022/03/25 03:46:44;;;;;;;363.48;78.90;;;3.20;99.90;;;;;;5016158;28;20050;-69
2022/03/25 03:49:10;;;;;;;359.27;79.60;;;3.20;99.90;;;;;;5015824;28;20042;-68
2022/03/25 03:51:36;;;;;;;360.55;80.70;;;3.20;99.90;;;;;;5016511;28;20133;-68
2022/03/25 03:54:05;;;;;;;372.90;79.65;;;3.20;99.90;;;;;;5016670;28;20148;-68
2022/03/25 03:56:30;;;;;;;384.70;78.32;;;3.10;99.90;;;;;;5018497;28;20437;-69
2022/03/25 03:58:56;;;;;;;336.50;75.32;;;3.10;99.90;;;;;;5015085;28;20042;-69
2022/03/25 04:01:22;;;;;;;515.97;83.95;;;3.10;99.90;;;;;;5014968;28;20124;-69
2022/03/25 04:03:47;;;;;;;487.88;75.53;;;3.00;99.90;;;;;;5014407;28;20046;-68
2022/03/25 04:06:13;;;;;;;475.65;79.53;;;3.00;99.90;;;;;;5015676;28;20049;-69
2022/03/25 04:08:39;;;;;;;827.90;86.97;;;3.00;99.90;;;;;;5014187;28;20108;-69
2022/03/25 04:11:04;;;;;;;349.38;70.60;;;2.90;99.90;;;;;;5015334;28;20351;-69
2022/03/25 04:13:31;;;;;;;1002.40;87.13;;;3.10;99.90;;;;;;5015390;28;20364;-69
2022/03/25 04:15:56;;;;;;;1625.15;110.22;;;3.00;99.90;;;;;;5015067;28;20081;-70
2022/03/25 04:18:23;;;;;;;729.50;72.18;;;2.90;99.90;;;;;;5015509;28;20077;-70
2022/03/25 04:20:50;;;;;;;647.05;72.15;;;2.90;99.90;;;;;;5015487;28;20045;-68
2022/03/25 04:23:16;;;;;;;615.42;73.03;;;3.00;99.90;;;;;;5013909;28;20107;-69
2022/03/25 04:25:42;;;;;;;949.78;76.15;;;2.90;99.90;;;;;;5013985;28;20109;-69
2022/03/25 04:28:08;;;;;;;1038.45;79.35;;;3.00;99.90;;;;;;5014031;28;20213;-68
2022/03/25 04:30:36;;;;;;;801.65;74.63;;;2.90;99.90;;;;;;5013925;28;20076;-69
2022/03/25 04:33:02;;;;;;;947.45;74.28;;;2.90;99.90;;;;;;5014132;28;20041;-68
2022/03/25 04:35:28;;;;;;;1066.03;79.65;;;2.80;99.90;;;;;;5014087;28;20045;-69
2022/03/25 04:37:55;;;;;;;868.47;70.50;;;2.70;99.90;;;;;;5014098;28;20141;-69
2022/03/25 04:40:23;;;;;;;1036.93;77.25;;;2.70;99.90;;;;;;5015232;28;20285;-69
2022/03/25 04:42:50;;;;;;;1486.03;105.40;;;2.50;99.90;;;;;;4998002;28;20441;-68
2022/03/25 04:45:17;;;;;;;1005.65;76.30;;;2.40;99.90;;;;;;5015210;28;20135;-69
2022/03/25 04:47:43;;;;;;;520.25;62.80;;;2.30;99.90;;;;;;5013499;28;20120;-69
2022/03/25 04:50:10;;;;;;;1210.10;88.00;;;2.50;99.90;;;;;;5015076;28;20042;-69
2022/03/25 04:52:36;;;;;;;859.72;76.45;;;2.30;99.90;;;;;;5014319;28;20046;-68
2022/03/25 04:55:03;;;;;;;894.45;74.25;;;2.30;99.90;;;;;;5014604;28;20061;-69
2022/03/25 04:57:29;;;;;;;795.33;72.80;;;2.20;99.90;;;;;;4997083;28;20053;-69
2022/03/25 04:59:55;;;;;;;566.50;59.95;;;2.20;99.90;;;;;;5013822;28;20053;-69
2022/03/25 05:02:22;;;;;;;534.60;57.88;;;2.20;99.90;;;;;;5014448;28;20081;-68
2022/03/25 05:04:47;;;;;;;903.40;73.03;;;2.30;99.90;;;;;;5014506;28;20042;-69
2022/03/25 05:07:17;;;;;;;974.22;78.55;;;2.20;99.90;;;;;;5013717;28;20049;-71
2022/03/25 05:09:43;;;;;;;551.55;65.25;;;2.10;99.90;;;;;;5014300;28;20458;-70
2022/03/25 05:12:12;;;;;;;393.95;58.53;;;2.10;99.90;;;;;;5015139;28;20093;-70
2022/03/25 05:14:39;;;;;;;900.53;79.28;;;2.10;99.90;;;;;;5014306;28;20049;-70
2022/03/25 05:17:05;;;;;;;627.35;66.30;;;2.10;99.90;;;;;;5013557;28;20137;-70
2022/03/25 05:19:31;;;;;;;493.63;59.05;;;2.10;99.90;;;;;;4997686;28;20085;-70
2022/03/25 05:21:58;;;;;;;1105.13;84.60;;;2.10;99.90;;;;;;5014536;28;20057;-70
2022/03/25 05:24:25;;;;;;;525.05;58.88;;;2.10;99.90;;;;;;4996353;28;20360;-70
2022/03/25 05:26:51;;;;;;;1067.45;84.65;;;2.10;99.90;;;;;;5014141;28;20042;-70
2022/03/25 05:29:17;;;;;;;426.60;57.30;;;2.10;99.90;;;;;;5014159;28;20470;-69
2022/03/25 05:31:42;;;;;;;435.45;59.47;;;2.00;99.90;;;;;;5014558;28;20132;-70
2022/03/25 05:34:08;;;;;;;425.98;57.25;;;2.00;99.90;;;;;;5013406;28;20054;-69
2022/03/25 05:36:34;;;;;;;371.17;56.30;;;2.00;99.90;;;;;;4997082;28;20414;-69
2022/03/25 05:39:00;;;;;;;783.83;77.80;;;2.00;99.90;;;;;;5013857;28;20046;-69
2022/03/25 05:41:28;;;;;;;700.90;69.47;;;2.00;99.90;;;;;;5012726;28;20100;-70
2022/03/25 05:43:54;;;;;;;;;;;1.90;99.90;;;;;;4980757;28;20120;-69
2022/03/25 05:46:20;;;;;;;601.25;55.80;;;1.80;99.90;;;;;;5012699;28;20400;-69
2022/03/25 05:48:46;;;;;;;610.72;61.58;;;1.90;99.90;;;;;;5012494;28;20042;-68
2022/03/25 05:51:13;;;;;;;370.42;56.95;;;1.90;99.90;;;;;;5012992;28;20056;-70
2022/03/25 05:53:40;;;;;;;733.87;69.70;;;1.90;99.90;;;;;;4995886;28;20080;-69
2022/03/25 05:56:06;;;;;;;773.72;76.68;;;2.00;99.90;;;;;;5013559;28;20046;-71
2022/03/25 05:58:33;;;;;;;417.77;60.03;;;1.80;99.90;;;;;;5013465;28;20128;-69
2022/03/25 06:01:00;;;;;;;825.92;78.20;;;1.80;99.90;;;;;;5012906;28;20431;-68
2022/03/25 06:03:26;;;;;;;733.17;70.53;;;1.80;99.90;;;;;;5012315;28;20053;-70
2022/03/25 06:05:52;;;;;;;676.92;72.30;;;1.80;99.90;;;;;;5012657;28;20089;-69
2022/03/25 06:08:18;;;;;;;683.95;72.15;;;1.80;99.90;;;;;;5013420;28;20042;-69
2022/03/25 06:10:44;;;;;;;686.90;74.10;;;1.80;99.90;;;;;;4995906;28;20374;-69
2022/03/25 06:13:10;;;;;;;260.38;54.40;;;1.90;99.90;;;;;;4979997;28;20050;-69
2022/03/25 06:15:36;;;;;;;284.92;54.53;;;1.90;99.90;;;;;;5013293;28;20050;-70
2022/03/25 06:18:01;;;;;;;276.70;53.40;;;2.00;99.90;;;;;;4996149;28;20087;-68
2022/03/25 06:20:30;;;;;;;388.50;57.63;;;2.00;99.90;;;;;;5012325;28;20209;-68
2022/03/25 06:22:57;;;;;;;248.98;51.40;;;2.10;99.90;;;;;;4996266;28;20049;-70
2022/03/25 06:25:22;;;;;;;259.02;50.50;;;2.10;99.90;;;;;;5013500;28;20046;-69
2022/03/25 06:27:57;;;;;;;346.65;55.30;;;2.20;99.90;;;;;;4995654;28;20057;-69
2022/03/25 06:30:27;;;;;;;226.13;48.40;;;2.10;99.90;;;;;;5012295;28;20046;-69
2022/03/25 06:32:53;;;;;;;217.27;53.08;;;2.10;99.90;;;;;;5012332;28;20038;-70
2022/03/25 06:35:20;;;;;;;263.67;54.10;;;2.20;99.90;;;;;;5012213;28;20053;-70
2022/03/25 06:37:46;;;;;;;237.27;51.43;;;2.10;99.90;;;;;;5012411;28;20076;-70
2022/03/25 06:40:13;;;;;;;182.10;48.42;;;2.30;99.90;;;;;;5013315;28;20046;-69
2022/03/25 06:42:40;;;;;;;204.30;50.83;;;2.30;99.90;;;;;;5011633;28;20146;-69
2022/03/25 06:45:07;;;;;;;;;;;2.40;99.90;;;;;;5012108;28;20049;-70
2022/03/25 06:47:32;;;;;;;205.38;48.83;;;2.40;99.90;;;;;;5012813;28;19939;-69
2022/03/25 06:49:58;;;;;;;214.95;50.92;;;2.40;99.90;;;;;;5012535;28;20046;-70
2022/03/25 06:52:25;;;;;;;220.07;53.78;;;2.40;99.90;;;;;;5011689;28;20096;-70
2022/03/25 06:54:51;;;;;;;209.43;51.60;;;2.50;99.90;;;;;;5012006;28;20512;-69
2022/03/25 06:57:17;;;;;;;222.63;55.17;;;2.50;99.90;;;;;;4996117;28;20049;-70
2022/03/25 06:59:43;;;;;;;234.35;57.95;;;2.60;99.90;;;;;;5013095;28;20053;-70
2022/03/25 07:02:11;;;;;;;201.75;50.35;;;2.60;99.90;;;;;;5013142;28;20046;-70
2022/03/25 07:04:37;;;;;;;227.20;53.17;;;2.60;99.90;;;;;;5013643;28;20042;-70
2022/03/25 07:07:05;;;;;;;216.67;50.83;;;2.70;99.90;;;;;;4995730;28;20041;-70
2022/03/25 07:09:31;;;;;;;196.50;50.10;;;2.90;99.90;;;;;;4996187;28;20300;-71
2022/03/25 07:11:58;;;;;;;187.50;50.22;;;2.90;99.90;;;;;;5012007;28;20064;-70
2022/03/25 07:14:24;;;;;;;188.40;48.45;;;3.00;99.90;;;;;;5012935;28;20037;-69
2022/03/25 07:16:49;;;;;;;187.18;49.22;;;3.10;99.90;;;;;;5011980;28;20046;-69
2022/03/25 07:19:15;;;;;;;205.20;54.55;;;3.20;99.90;;;;;;5011368;28;20034;-70
2022/03/25 07:21:41;;;;;;;196.90;54.45;;;3.40;99.90;;;;;;5013370;28;20054;-71
2022/03/25 07:24:07;;;;;;;208.20;59.30;;;3.40;99.90;;;;;;5011425;28;20421;-69
2022/03/25 07:26:33;;;;;;;193.65;50.95;;;3.60;99.90;;;;;;5011431;28;20064;-69
2022/03/25 07:28:59;;;;;;;184.27;49.00;;;3.70;99.90;;;;;;4995259;28;20057;-70
2022/03/25 07:31:28;;;;;;;174.50;49.35;;;3.80;99.90;;;;;;5011533;28;20046;-70
2022/03/25 07:33:57;;;;;;;179.93;49.83;;;4.00;99.90;;;;;;5011100;28;20050;-70
2022/03/25 07:36:23;;;;;;;181.52;48.78;;;4.20;99.90;;;;;;5012383;28;20517;-70
2022/03/25 07:38:49;;;;;;;172.48;48.70;;;4.20;99.90;;;;;;4995350;28;20054;-70
2022/03/25 07:41:15;;;;;;;181.93;52.45;;;4.40;99.90;;;;;;5011344;28;20081;-72
2022/03/25 07:43:41;;;;;;;182.23;48.78;;;4.50;99.90;;;;;;5011600;28;20462;-70
2022/03/25 07:46:06;;;;;;;162.52;45.95;;;4.60;99.90;;;;;;5011322;28;20104;-70
2022/03/25 07:48:32;;;;;;;176.25;56.05;;;4.70;99.90;;;;;;5010651;28;20072;-70
2022/03/25 07:50:59;;;;;;;172.13;55.92;;;4.80;99.90;;;;;;5014120;28;20096;-70
2022/03/25 07:53:25;;;;;;;164.77;46.65;;;5.00;99.90;;;;;;5014271;28;20053;-70
2022/03/25 07:55:51;;;;;;;162.57;49.20;;;5.10;99.90;;;;;;5014816;28;20084;-70
2022/03/25 07:58:21;;;;;;;154.10;46.20;;;5.30;99.90;;;;;;5014823;28;20077;-71
2022/03/25 08:00:51;;;;;;;175.70;55.80;;;5.40;99.90;;;;;;5015955;28;20034;-70
2022/03/25 08:03:19;;;;;;;155.82;45.47;;;5.50;99.90;;;;;;5014590;28;20072;-72
2022/03/25 08:05:48;;;;;;;162.85;50.78;;;5.60;99.90;;;;;;5015859;28;20096;-70
2022/03/25 08:08:15;;;;;;;138.02;44.22;;;5.70;99.90;;;;;;5014125;28;20063;-69
2022/03/25 08:10:41;;;;;;;148.95;45.30;;;5.90;99.90;;;;;;5014663;28;20465;-70
2022/03/25 08:13:09;;;;;;;140.05;44.33;;;6.00;99.90;;;;;;4997968;28;20096;-70
2022/03/25 08:15:35;;;;;;;142.02;43.35;;;6.20;99.90;;;;;;5015556;28;20516;-70
2022/03/25 08:18:05;;;;;;;139.52;43.78;;;6.40;99.90;;;;;;5015044;28;20065;-70
2022/03/25 08:20:42;;;;;;;132.50;41.15;;;6.50;99.90;;;;;;5016132;28;20037;-70
2022/03/25 08:23:13;;;;;;;137.93;39.92;;;6.60;99.90;;;;;;5015342;28;20233;-70
2022/03/25 08:28:26;;;;;;;136.95;40.80;;;7.00;99.90;;;;;;5015452;28;20561;-70
2022/03/25 08:30:52;;;;;;;142.85;43.38;;;7.10;99.90;;;;;;5015089;28;20121;-70
2022/03/25 08:33:19;;;;;;;131.38;40.90;;;7.30;99.90;;;;;;5015216;28;20049;-68
2022/03/25 08:35:45;;;;;;;136.52;42.83;;;7.40;99.90;;;;;;5016185;28;20046;-69
2022/03/25 08:38:12;;;;;;;125.15;40.03;;;7.50;99.90;;;;;;4997840;28;20394;-70
2022/03/25 08:40:39;;;;;;;124.05;40.67;;;7.70;99.90;;;;;;4997804;28;20046;-69
2022/03/25 08:43:05;;;;;;;124.25;45.83;;;7.80;99.90;;;;;;5015278;28;20085;-70
2022/03/25 08:45:33;;;;;;;124.38;41.03;;;7.80;99.90;;;;;;5014990;28;20042;-68
2022/03/25 08:47:59;;;;;;;137.68;42.58;;;7.90;99.90;;;;;;5015138;28;20081;-70
2022/03/25 08:50:25;;;;;;;140.00;46.60;;;8.00;99.90;;;;;;5015305;28;20050;-70
2022/03/25 08:52:52;;;;;;;126.70;40.75;;;8.30;99.90;;;;;;5014689;28;20042;-68
2022/03/25 08:55:20;;;;;;;121.35;38.65;;;8.30;99.90;;;;;;5013532;28;20512;-69
2022/03/25 08:57:49;;;;;;;124.97;39.10;;;8.40;99.90;;;;;;5014877;28;20544;-69
2022/03/25 09:00:17;;;;;;;113.38;36.20;;;8.60;99.90;;;;;;5015125;28;20053;-71
2022/03/25 09:02:44;;;;;;;116.85;38.63;;;8.70;99.90;;;;;;5012714;28;20045;-70
2022/03/25 09:05:11;;;;;;;115.55;38.20;;;8.80;99.90;;;;;;5013806;28;20046;-70
2022/03/25 09:07:37;;;;;;;122.50;38.10;;;8.90;99.90;;;;;;5013287;28;20054;-70
2022/03/25 09:10:07;;;;;;;116.30;40.58;;;9.00;99.90;;;;;;5012855;28;20045;-69
2022/03/25 09:12:34;;;;;;;123.85;40.10;;;9.10;99.90;;;;;;5013501;28;20102;-69
2022/03/25 09:15:00;;;;;;;110.40;38.25;;;9.20;99.90;;;;;;5014538;28;20050;-69
2022/03/25 09:17:26;;;;;;;114.07;38.97;;;9.30;99.90;;;;;;5014542;28;20077;-69
2022/03/25 09:19:53;;;;;;;109.55;36.53;;;9.40;99.90;;;;;;5016916;28;20100;-69
2022/03/25 09:22:19;;;;;;;106.43;35.03;;;9.40;99.90;;;;;;5016341;28;20073;-68
2022/03/25 09:24:45;;;;;;;108.75;35.67;;;9.60;99.90;;;;;;5020038;28;20098;-70
2022/03/25 09:27:11;;;;;;;115.28;40.00;;;9.80;99.90;;;;;;5003842;28;20431;-69
2022/03/25 09:29:37;;;;;;;105.57;33.20;;;9.80;99.90;;;;;;5014789;28;20052;-69
2022/03/25 09:32:04;;;;;;;115.10;36.97;;;9.90;99.90;;;;;;5017564;28;20132;-71
2022/03/25 09:37:14;;;;;;;112.80;37.65;;;10.20;99.90;;;;;;5014711;28;20093;-70
2022/03/25 09:39:40;;;;;;;121.10;38.15;;;10.20;99.90;;;;;;5013785;28;20054;-70
2022/03/25 09:42:07;;;;;;;114.63;37.63;;;10.40;99.90;;;;;;5013980;28;20057;-70
2022/03/25 09:44:34;;;;;;;104.03;37.45;;;10.40;99.90;;;;;;5012907;28;20077;-69
2022/03/25 09:47:00;;;;;;;115.22;42.90;;;10.50;99.90;;;;;;5012939;28;20054;-69
2022/03/25 09:49:26;;;;;;;117.70;38.58;;;;;;;;;;5013311;28;20038;-70
2022/03/25 09:51:52;;;;;;;118.50;41.03;;;10.80;99.90;;;;;;5014362;28;20053;-70
2022/03/25 09:54:19;;;;;;;103.72;37.42;;;10.80;99.90;;;;;;4996264;28;20054;-70
2022/03/25 09:56:45;;;;;;;110.60;36.75;;;10.90;99.90;;;;;;5012632;28;20058;-69
2022/03/25 09:59:17;;;;;;;104.03;36.57;;;11.00;99.90;;;;;;5014451;28;20065;-71
2022/03/25 10:01:43;;;;;;;101.70;36.10;;;11.00;99.90;;;;;;5013472;28;20115;-71
2022/03/25 10:04:09;;;;;;;109.05;35.70;;;11.10;99.90;;;;;;5012812;28;20045;-71
2022/03/25 10:06:46;;;;;;;103.32;36.20;;;11.20;99.90;;;;;;5013734;28;20129;-71
2022/03/25 10:09:21;;;;;;;98.20;34.58;;;11.20;99.90;;;;;;5013950;28;20045;-70
2022/03/25 10:11:47;;;;;;;98.75;34.45;;;11.30;99.90;;;;;;5013519;28;20042;-70
2022/03/25 10:14:17;;;;;;;111.53;41.40;;;11.40;99.90;;;;;;5013695;28;20050;-71
2022/03/25 10:16:45;;;;;;;100.25;33.45;;;11.60;99.90;;;;;;4996586;28;20050;-70
2022/03/25 10:19:18;;;;;;;102.15;35.33;;;11.60;99.90;;;;;;5013667;28;20046;-70
2022/03/25 10:22:02;;;;;;;96.05;33.22;;;11.60;99.90;;;;;;4980701;28;20049;-69
2022/03/25 10:24:36;;;;;;;103.15;34.85;;;11.80;99.90;;;;;;5014351;28;20053;-70
2022/03/25 10:27:07;;;;;;;96.93;32.40;;;11.80;99.90;;;;;;5014165;28;20375;-70
2022/03/25 10:29:35;;;;;;;92.68;32.03;;;11.80;99.90;;;;;;5013206;28;20053;-72
2022/03/25 10:32:23;;;;;;;103.70;38.08;;;11.90;99.90;;;;;;5014718;28;20091;-70
2022/03/25 10:35:07;;;;;;;94.30;34.65;;;12.30;99.90;;;;;;5014114;28;20367;-70
2022/03/25 10:37:33;;;;;;;96.40;34.03;;;12.40;99.90;;;;;;4996214;28;20046;-70
2022/03/25 10:39:59;;;;;;;93.00;32.08;;;12.40;99.90;;;;;;5015593;28;20138;-70
2022/03/25 10:42:25;;;;;;;97.78;33.15;;;12.50;99.90;;;;;;5012587;28;20053;-69
2022/03/25 10:44:50;;;;;;;102.07;32.13;;;12.60;99.90;;;;;;5012406;28;20042;-71
2022/03/25 10:47:16;;;;;;;95.93;32.72;;;12.70;99.90;;;;;;5014281;28;20042;-70
2022/03/25 10:49:44;;;;;;;96.10;34.03;;;12.80;99.90;;;;;;5012874;28;20045;-71
2022/03/25 10:52:30;;;;;;;88.88;33.38;;;12.90;99.90;;;;;;5014309;28;20085;-73
2022/03/25 10:55:19;;;;;;;103.45;32.15;;;13.00;99.90;;;;;;5012381;28;20054;-70
2022/03/25 10:57:53;;;;;;;85.03;30.67;;;13.00;99.90;;;;;;5013625;28;20123;-70
2022/03/25 11:00:20;;;;;;;91.07;34.78;;;13.20;99.90;;;;;;5013464;28;20565;-70
2022/03/25 11:02:47;;;;;;;85.72;31.67;;;13.50;99.90;;;;;;4996721;28;20461;-70
2022/03/25 11:05:13;;;;;;;93.25;36.28;;;13.50;99.90;;;;;;4998380;28;20049;-70
2022/03/25 11:07:42;;;;;;;95.15;31.10;;;13.50;99.80;;;;;;5016115;28;20133;-72
2022/03/25 11:10:12;;;;;;;88.57;32.22;;;13.60;99.90;;;;;;5014855;28;20363;-72
2022/03/25 11:12:44;;;;;;;94.32;36.30;;;13.60;99.90;;;;;;5016380;28;20082;-74
2022/03/25 11:15:14;;;;;;;97.75;32.40;;;13.90;99.90;;;;;;5016870;28;20058;-71
2022/03/25 11:17:44;;;;;;;81.07;32.58;;;13.90;98.60;;;;;;5015483;28;20049;-72
2022/03/25 11:20:12;;;;;;;94.38;32.78;;;14.10;97.80;;;;;;5018038;28;20058;-70
2022/03/25 11:22:48;;;;;;;87.40;32.80;;;14.10;97.90;;;;;;5020211;28;20046;-70
2022/03/25 11:25:18;;;;;;;88.07;32.28;;;14.00;97.50;;;;;;5021104;28;20041;-71
2022/03/25 11:27:54;;;;;;;88.45;32.88;;;14.10;98.10;;;;;;5023989;28;20057;-69
2022/03/25 11:30:20;;;;;;;86.45;33.22;;;14.10;99.20;;;;;;5017854;28;20483;-70
2022/03/25 11:32:49;;;;;;;84.65;31.15;;;14.10;96.60;;;;;;5019474;28;20180;-70
2022/03/25 11:35:17;;;;;;;88.75;31.10;;;14.20;98.60;;;;;;5018194;28;20068;-68
2022/03/25 11:37:43;;;;;;;87.95;30.30;;;14.30;99.00;;;;;;4984484;28;20050;-71
2022/03/25 11:40:14;;;;;;;84.15;30.75;;;14.40;99.00;;;;;;5018065;28;20490;-69
2022/03/25 11:42:44;;;;;;;87.57;32.03;;;14.50;95.60;;;;;;5016455;28;20113;-69
2022/03/25 11:45:22;;;;;;;90.57;32.72;;;14.50;95.40;;;;;;4999204;28;20061;-69
2022/03/25 11:48:03;;;;;;;80.20;30.02;;;14.50;96.50;;;;;;5016896;28;20052;-70
2022/03/25 11:50:35;;;;;;;87.30;30.38;;;14.60;97.20;;;;;;5015172;28;20050;-70
2022/03/25 11:53:10;;;;;;;85.43;29.45;;;14.60;93.60;;;;;;5015171;28;20149;-70
2022/03/25 11:55:56;;;;;;;83.28;30.63;;;14.70;95.40;;;;;;5015910;28;20061;-70
2022/03/25 11:58:22;;;;;;;74.30;29.87;;;14.70;93.60;;;;;;5016150;28;20523;-70
2022/03/25 12:00:54;;;;;;;88.70;32.55;;;14.80;93.70;;;;;;5016106;28;20052;-69
2022/03/25 12:03:20;;;;;;;79.68;28.83;;;15.10;92.10;;;;;;5016424;28;20053;-68
2022/03/25 12:06:02;;;;;;;86.63;30.55;;;15.10;94.10;;;;;;5016663;28;20046;-72
2022/03/25 12:08:35;;;;;;;76.55;27.83;;;15.10;91.00;;;;;;5016055;28;20159;-72
2022/03/25 12:11:08;;;;;;;75.38;28.17;;;15.20;93.60;;;;;;5016336;28;20046;-70
2022/03/25 12:13:54;;;;;;;76.10;28.35;;;15.20;92.60;;;;;;4999437;28;20053;-69
2022/03/25 12:16:39;;;;;;;;;;;15.20;90.60;;;;;;4999902;28;20046;-70
2022/03/25 12:19:05;;;;;;;71.32;25.48;;;15.30;88.00;;;;;;5015822;28;19917;-69
2022/03/25 12:21:30;;;;;;;75.78;27.50;;;15.40;90.00;;;;;;4998972;28;20454;-69
2022/03/25 12:23:58;;;;;;;71.70;27.58;;;15.50;90.00;;;;;;5015617;28;20057;-70
2022/03/25 12:26:37;;;;;;;72.63;27.85;;;15.50;88.50;;;;;;5015738;28;20516;-70
2022/03/25 12:29:06;;;;;;;72.93;28.30;;;15.50;89.30;;;;;;5015476;28;20040;-72
2022/03/25 12:31:32;;;;;;;77.63;29.02;;;15.40;83.80;;;;;;5014530;28;20482;-70
2022/03/25 12:34:02;;;;;;;63.65;24.08;;;15.50;84.50;;;;;;5015615;28;20052;-69
2022/03/25 12:36:42;;;;;;;69.18;23.77;;;15.60;83.50;;;;;;4982077;28;20129;-70